sensor_id;sensor_type;location;lat;lon;timestamp;temperature;humidity
66190;DHT22;52992;52.084;5.412;2023-03-23T00:00:07;15.30;76.50
66190;DHT22;52992;52.084;5.412;2023-03-23T00:02:36;15.40;76.30
66190;DHT22;52992;52.084;5.412;2023-03-23T00:05:04;15.40;76.10
66190;DHT22;52992;52.084;5.412;2023-03-23T00:07:33;15.40;75.70
66190;DHT22;52992;52.084;5.412;2023-03-23T00:09:59;15.10;76.30
66190;DHT22;52992;52.084;5.412;2023-03-23T00:12:29;15.20;76.90
66190;DHT22;52992;52.084;5.412;2023-03-23T00:15:06;15.00;76.20
66190;DHT22;52992;52.084;5.412;2023-03-23T00:17:34;15.10;76.30
66190;DHT22;52992;52.084;5.412;2023-03-23T00:20:01;15.20;75.70
66190;DHT22;52992;52.084;5.412;2023-03-23T00:22:30;15.30;75.80
66190;DHT22;52992;52.084;5.412;2023-03-23T00:24:56;15.30;75.50
66190;DHT22;52992;52.084;5.412;2023-03-23T00:27:22;15.40;74.60
66190;DHT22;52992;52.084;5.412;2023-03-23T00:29:51;15.30;74.70
66190;DHT22;52992;52.084;5.412;2023-03-23T00:32:20;15.30;75.10
66190;DHT22;52992;52.084;5.412;2023-03-23T00:34:47;15.30;75.10
66190;DHT22;52992;52.084;5.412;2023-03-23T00:37:15;15.30;74.60
66190;DHT22;52992;52.084;5.412;2023-03-23T00:39:44;15.30;74.50
66190;DHT22;52992;52.084;5.412;2023-03-23T00:42:15;15.30;74.70
66190;DHT22;52992;52.084;5.412;2023-03-23T00:44:42;15.40;74.50
66190;DHT22;52992;52.084;5.412;2023-03-23T00:47:11;15.30;75.20
66190;DHT22;52992;52.084;5.412;2023-03-23T00:49:38;15.30;74.70
66190;DHT22;52992;52.084;5.412;2023-03-23T00:52:06;15.30;74.60
66190;DHT22;52992;52.084;5.412;2023-03-23T00:54:32;15.30;74.40
66190;DHT22;52992;52.084;5.412;2023-03-23T00:56:59;15.30;74.40
66190;DHT22;52992;52.084;5.412;2023-03-23T00:59:25;15.30;74.50
66190;DHT22;52992;52.084;5.412;2023-03-23T01:01:51;15.30;74.50
66190;DHT22;52992;52.084;5.412;2023-03-23T01:04:17;15.30;74.60
66190;DHT22;52992;52.084;5.412;2023-03-23T01:06:44;15.30;74.40
66190;DHT22;52992;52.084;5.412;2023-03-23T01:09:13;15.30;74.80
66190;DHT22;52992;52.084;5.412;2023-03-23T01:11:45;15.30;74.10
66190;DHT22;52992;52.084;5.412;2023-03-23T01:14:13;15.30;74.10
66190;DHT22;52992;52.084;5.412;2023-03-23T01:16:40;15.30;74.20
66190;DHT22;52992;52.084;5.412;2023-03-23T01:19:06;15.40;74.00
66190;DHT22;52992;52.084;5.412;2023-03-23T01:21:32;15.40;74.00
66190;DHT22;52992;52.084;5.412;2023-03-23T01:23:58;15.40;74.00
66190;DHT22;52992;52.084;5.412;2023-03-23T01:26:26;15.40;74.00
66190;DHT22;52992;52.084;5.412;2023-03-23T01:28:53;15.40;74.00
66190;DHT22;52992;52.084;5.412;2023-03-23T01:31:21;15.40;73.90
66190;DHT22;52992;52.084;5.412;2023-03-23T01:33:47;15.40;73.60
66190;DHT22;52992;52.084;5.412;2023-03-23T01:36:16;15.40;73.40
66190;DHT22;52992;52.084;5.412;2023-03-23T01:38:45;15.40;73.40
66190;DHT22;52992;52.084;5.412;2023-03-23T01:41:12;15.40;73.70
66190;DHT22;52992;52.084;5.412;2023-03-23T01:46:40;15.40;73.70
66190;DHT22;52992;52.084;5.412;2023-03-23T01:49:08;15.30;72.90
66190;DHT22;52992;52.084;5.412;2023-03-23T01:51:56;15.40;73.10
66190;DHT22;52992;52.084;5.412;2023-03-23T01:54:24;15.30;73.10
66190;DHT22;52992;52.084;5.412;2023-03-23T01:57:01;15.30;72.90
66190;DHT22;52992;52.084;5.412;2023-03-23T01:59:29;15.30;72.90
66190;DHT22;52992;52.084;5.412;2023-03-23T02:02:15;15.30;73.00
66190;DHT22;52992;52.084;5.412;2023-03-23T02:04:44;15.40;72.90
66190;DHT22;52992;52.084;5.412;2023-03-23T02:07:11;15.30;72.70
66190;DHT22;52992;52.084;5.412;2023-03-23T02:09:38;15.40;72.80
66190;DHT22;52992;52.084;5.412;2023-03-23T02:12:04;15.40;72.20
66190;DHT22;52992;52.084;5.412;2023-03-23T02:14:30;15.40;72.20
66190;DHT22;52992;52.084;5.412;2023-03-23T02:17:27;15.40;72.10
66190;DHT22;52992;52.084;5.412;2023-03-23T02:20:13;15.40;71.80
66190;DHT22;52992;52.084;5.412;2023-03-23T02:34:45;15.50;71.20
66190;DHT22;52992;52.084;5.412;2023-03-23T02:37:22;15.60;71.00
66190;DHT22;52992;52.084;5.412;2023-03-23T02:40:20;15.60;70.70
66190;DHT22;52992;52.084;5.412;2023-03-23T02:42:50;15.60;70.90
66190;DHT22;52992;52.084;5.412;2023-03-23T02:45:17;15.60;70.10
66190;DHT22;52992;52.084;5.412;2023-03-23T02:47:47;15.60;69.70
66190;DHT22;52992;52.084;5.412;2023-03-23T02:50:15;15.60;70.50
66190;DHT22;52992;52.084;5.412;2023-03-23T02:52:43;15.60;70.90
66190;DHT22;52992;52.084;5.412;2023-03-23T02:55:11;15.60;71.20
66190;DHT22;52992;52.084;5.412;2023-03-23T02:57:39;15.60;71.10
66190;DHT22;52992;52.084;5.412;2023-03-23T03:00:07;15.60;70.70
66190;DHT22;52992;52.084;5.412;2023-03-23T03:02:38;15.60;70.90
66190;DHT22;52992;52.084;5.412;2023-03-23T03:05:20;15.60;70.40
66190;DHT22;52992;52.084;5.412;2023-03-23T03:07:58;15.60;70.60
66190;DHT22;52992;52.084;5.412;2023-03-23T03:10:53;15.60;70.80
66190;DHT22;52992;52.084;5.412;2023-03-23T03:13:56;15.70;70.80
66190;DHT22;52992;52.084;5.412;2023-03-23T03:16:37;15.70;70.50
66190;DHT22;52992;52.084;5.412;2023-03-23T03:19:20;15.70;70.40
66190;DHT22;52992;52.084;5.412;2023-03-23T03:21:52;15.70;70.10
66190;DHT22;52992;52.084;5.412;2023-03-23T03:24:28;15.70;70.10
66190;DHT22;52992;52.084;5.412;2023-03-23T03:26:56;15.70;69.90
66190;DHT22;52992;52.084;5.412;2023-03-23T03:29:34;15.70;70.00
66190;DHT22;52992;52.084;5.412;2023-03-23T03:32:04;15.80;69.80
66190;DHT22;52992;52.084;5.412;2023-03-23T03:34:32;15.80;69.20
66190;DHT22;52992;52.084;5.412;2023-03-23T03:36:59;15.70;69.30
66190;DHT22;52992;52.084;5.412;2023-03-23T03:39:27;15.70;68.90
66190;DHT22;52992;52.084;5.412;2023-03-23T03:41:53;15.70;69.00
66190;DHT22;52992;52.084;5.412;2023-03-23T03:44:20;15.80;69.10
66190;DHT22;52992;52.084;5.412;2023-03-23T03:46:46;15.70;68.90
66190;DHT22;52992;52.084;5.412;2023-03-23T03:49:12;15.80;69.20
66190;DHT22;52992;52.084;5.412;2023-03-23T03:51:40;15.80;68.90
66190;DHT22;52992;52.084;5.412;2023-03-23T03:54:11;15.80;68.70
66190;DHT22;52992;52.084;5.412;2023-03-23T03:56:37;15.80;68.70
66190;DHT22;52992;52.084;5.412;2023-03-23T03:59:44;15.80;68.40
66190;DHT22;52992;52.084;5.412;2023-03-23T04:02:48;15.80;68.60
66190;DHT22;52992;52.084;5.412;2023-03-23T04:05:29;15.80;68.50
66190;DHT22;52992;52.084;5.412;2023-03-23T04:07:55;15.80;68.10
66190;DHT22;52992;52.084;5.412;2023-03-23T04:10:31;15.90;67.80
66190;DHT22;52992;52.084;5.412;2023-03-23T04:12:58;15.80;67.80
66190;DHT22;52992;52.084;5.412;2023-03-23T04:15:56;15.80;67.50
66190;DHT22;52992;52.084;5.412;2023-03-23T04:18:22;15.90;67.20
66190;DHT22;52992;52.084;5.412;2023-03-23T04:20:49;15.90;66.40
66190;DHT22;52992;52.084;5.412;2023-03-23T04:23:20;15.80;66.40
66190;DHT22;52992;52.084;5.412;2023-03-23T04:25:49;15.90;66.30
66190;DHT22;52992;52.084;5.412;2023-03-23T04:28:16;16.00;65.80
66190;DHT22;52992;52.084;5.412;2023-03-23T04:31:00;16.00;65.00
66190;DHT22;52992;52.084;5.412;2023-03-23T04:33:28;16.00;64.70
66190;DHT22;52992;52.084;5.412;2023-03-23T04:35:56;15.90;63.90
66190;DHT22;52992;52.084;5.412;2023-03-23T04:38:31;15.90;63.70
66190;DHT22;52992;52.084;5.412;2023-03-23T04:41:03;15.90;63.60
66190;DHT22;52992;52.084;5.412;2023-03-23T04:43:49;16.00;63.60
66190;DHT22;52992;52.084;5.412;2023-03-23T04:46:26;16.00;63.50
66190;DHT22;52992;52.084;5.412;2023-03-23T04:48:57;15.90;62.80
66190;DHT22;52992;52.084;5.412;2023-03-23T04:51:31;16.00;63.70
66190;DHT22;52992;52.084;5.412;2023-03-23T04:54:07;15.80;63.40
66190;DHT22;52992;52.084;5.412;2023-03-23T04:56:35;15.80;63.50
66190;DHT22;52992;52.084;5.412;2023-03-23T04:59:08;15.90;64.10
66190;DHT22;52992;52.084;5.412;2023-03-23T05:01:39;15.90;63.30
66190;DHT22;52992;52.084;5.412;2023-03-23T05:04:13;15.90;63.40
66190;DHT22;52992;52.084;5.412;2023-03-23T05:06:44;15.80;63.50
66190;DHT22;52992;52.084;5.412;2023-03-23T05:09:17;15.80;62.70
66190;DHT22;52992;52.084;5.412;2023-03-23T05:11:43;15.80;62.90
66190;DHT22;52992;52.084;5.412;2023-03-23T05:14:09;15.70;63.20
66190;DHT22;52992;52.084;5.412;2023-03-23T05:16:37;15.70;64.00
66190;DHT22;52992;52.084;5.412;2023-03-23T05:19:04;15.80;63.90
66190;DHT22;52992;52.084;5.412;2023-03-23T05:21:31;15.70;63.90
66190;DHT22;52992;52.084;5.412;2023-03-23T05:23:57;15.70;64.00
66190;DHT22;52992;52.084;5.412;2023-03-23T05:26:27;15.80;64.00
66190;DHT22;52992;52.084;5.412;2023-03-23T05:29:03;15.70;63.40
66190;DHT22;52992;52.084;5.412;2023-03-23T05:31:51;15.80;63.40
66190;DHT22;52992;52.084;5.412;2023-03-23T05:34:19;15.80;63.80
66190;DHT22;52992;52.084;5.412;2023-03-23T05:36:53;15.80;63.20
66190;DHT22;52992;52.084;5.412;2023-03-23T05:39:44;15.70;63.40
66190;DHT22;52992;52.084;5.412;2023-03-23T05:42:16;15.70;63.60
66190;DHT22;52992;52.084;5.412;2023-03-23T05:45:03;15.70;63.50
66190;DHT22;52992;52.084;5.412;2023-03-23T05:47:30;15.80;63.80
66190;DHT22;52992;52.084;5.412;2023-03-23T05:50:03;15.80;63.30
66190;DHT22;52992;52.084;5.412;2023-03-23T05:52:33;15.80;63.40
66190;DHT22;52992;52.084;5.412;2023-03-23T05:55:03;15.80;63.60
66190;DHT22;52992;52.084;5.412;2023-03-23T05:57:32;15.90;63.30
66190;DHT22;52992;52.084;5.412;2023-03-23T06:00:05;15.90;63.40
66190;DHT22;52992;52.084;5.412;2023-03-23T06:02:42;15.90;63.40
66190;DHT22;52992;52.084;5.412;2023-03-23T06:05:13;15.80;63.60
66190;DHT22;52992;52.084;5.412;2023-03-23T06:07:42;15.70;64.20
66190;DHT22;52992;52.084;5.412;2023-03-23T06:10:09;15.40;67.90
66190;DHT22;52992;52.084;5.412;2023-03-23T06:12:41;15.20;69.70
66190;DHT22;52992;52.084;5.412;2023-03-23T06:15:15;14.90;72.00
66190;DHT22;52992;52.084;5.412;2023-03-23T06:18:03;14.80;73.50
66190;DHT22;52992;52.084;5.412;2023-03-23T06:20:41;14.60;74.20
66190;DHT22;52992;52.084;5.412;2023-03-23T06:23:28;14.70;74.80
66190;DHT22;52992;52.084;5.412;2023-03-23T06:26:02;14.70;75.60
66190;DHT22;52992;52.084;5.412;2023-03-23T06:28:29;14.70;75.90
66190;DHT22;52992;52.084;5.412;2023-03-23T06:30:59;14.80;76.10
66190;DHT22;52992;52.084;5.412;2023-03-23T06:33:26;14.80;75.70
66190;DHT22;52992;52.084;5.412;2023-03-23T06:36:23;14.80;76.20
66190;DHT22;52992;52.084;5.412;2023-03-23T06:39:14;14.80;75.90
66190;DHT22;52992;52.084;5.412;2023-03-23T06:41:57;14.80;75.70
66190;DHT22;52992;52.084;5.412;2023-03-23T06:44:26;14.70;76.30
66190;DHT22;52992;52.084;5.412;2023-03-23T06:46:52;14.70;76.40
66190;DHT22;52992;52.084;5.412;2023-03-23T06:49:24;14.60;76.00
66190;DHT22;52992;52.084;5.412;2023-03-23T06:51:57;14.60;76.50
66190;DHT22;52992;52.084;5.412;2023-03-23T06:54:24;14.70;76.20
66190;DHT22;52992;52.084;5.412;2023-03-23T06:56:51;14.60;76.00
66190;DHT22;52992;52.084;5.412;2023-03-23T06:59:17;14.70;76.40
66190;DHT22;52992;52.084;5.412;2023-03-23T07:01:43;14.60;76.30
66190;DHT22;52992;52.084;5.412;2023-03-23T07:04:09;14.70;76.70
66190;DHT22;52992;52.084;5.412;2023-03-23T07:06:47;14.70;76.40
66190;DHT22;52992;52.084;5.412;2023-03-23T07:09:13;14.70;76.70
66190;DHT22;52992;52.084;5.412;2023-03-23T07:11:41;14.70;76.50
66190;DHT22;52992;52.084;5.412;2023-03-23T07:14:15;14.70;77.00
66190;DHT22;52992;52.084;5.412;2023-03-23T07:16:41;14.80;76.10
66190;DHT22;52992;52.084;5.412;2023-03-23T07:19:07;14.80;76.10
66190;DHT22;52992;52.084;5.412;2023-03-23T07:21:33;14.80;75.90
66190;DHT22;52992;52.084;5.412;2023-03-23T07:23:59;14.80;76.20
66190;DHT22;52992;52.084;5.412;2023-03-23T07:26:41;14.70;75.80
66190;DHT22;52992;52.084;5.412;2023-03-23T07:29:08;14.70;76.10
66190;DHT22;52992;52.084;5.412;2023-03-23T07:31:40;14.70;76.30
66190;DHT22;52992;52.084;5.412;2023-03-23T07:34:06;14.80;76.60
66190;DHT22;52992;52.084;5.412;2023-03-23T07:36:55;14.80;75.80
66190;DHT22;52992;52.084;5.412;2023-03-23T07:39:23;14.80;75.50
66190;DHT22;52992;52.084;5.412;2023-03-23T07:41:52;14.80;75.80
66190;DHT22;52992;52.084;5.412;2023-03-23T07:44:30;14.90;75.70
66190;DHT22;52992;52.084;5.412;2023-03-23T07:46:56;14.90;75.70
66190;DHT22;52992;52.084;5.412;2023-03-23T07:49:29;14.80;75.20
66190;DHT22;52992;52.084;5.412;2023-03-23T07:52:06;14.80;76.00
66190;DHT22;52992;52.084;5.412;2023-03-23T07:54:32;15.00;76.40
66190;DHT22;52992;52.084;5.412;2023-03-23T07:57:03;15.10;76.00
66190;DHT22;52992;52.084;5.412;2023-03-23T07:59:32;15.30;76.00
66190;DHT22;52992;52.084;5.412;2023-03-23T08:01:59;15.40;75.60
66190;DHT22;52992;52.084;5.412;2023-03-23T08:04:32;15.40;75.60
66190;DHT22;52992;52.084;5.412;2023-03-23T08:07:25;15.50;75.40
66190;DHT22;52992;52.084;5.412;2023-03-23T08:10:11;15.40;74.80
66190;DHT22;52992;52.084;5.412;2023-03-23T08:12:41;15.40;74.40
66190;DHT22;52992;52.084;5.412;2023-03-23T08:15:13;15.30;75.00
66190;DHT22;52992;52.084;5.412;2023-03-23T08:18:05;15.40;75.10
66190;DHT22;52992;52.084;5.412;2023-03-23T08:20:58;15.40;74.60
66190;DHT22;52992;52.084;5.412;2023-03-23T08:23:33;15.40;74.70
66190;DHT22;52992;52.084;5.412;2023-03-23T08:25:59;15.40;74.80
66190;DHT22;52992;52.084;5.412;2023-03-23T08:28:46;15.50;74.70
66190;DHT22;52992;52.084;5.412;2023-03-23T08:31:20;15.50;75.10
66190;DHT22;52992;52.084;5.412;2023-03-23T08:34:13;15.60;74.80
66190;DHT22;52992;52.084;5.412;2023-03-23T08:36:50;15.60;73.80
66190;DHT22;52992;52.084;5.412;2023-03-23T08:39:43;15.70;74.90
66190;DHT22;52992;52.084;5.412;2023-03-23T08:42:26;16.00;75.20
66190;DHT22;52992;52.084;5.412;2023-03-23T08:45:18;16.30;73.90
66190;DHT22;52992;52.084;5.412;2023-03-23T08:47:55;16.60;73.50
66190;DHT22;52992;52.084;5.412;2023-03-23T08:50:37;16.70;72.30
66190;DHT22;52992;52.084;5.412;2023-03-23T08:53:18;16.80;71.60
66190;DHT22;52992;52.084;5.412;2023-03-23T08:55:47;16.70;71.80
66190;DHT22;52992;52.084;5.412;2023-03-23T08:58:44;16.60;71.80
66190;DHT22;52992;52.084;5.412;2023-03-23T09:01:21;16.70;71.40
66190;DHT22;52992;52.084;5.412;2023-03-23T09:04:13;16.70;71.70
66190;DHT22;52992;52.084;5.412;2023-03-23T09:06:54;17.30;72.60
66190;DHT22;52992;52.084;5.412;2023-03-23T09:09:20;17.70;68.70
66190;DHT22;52992;52.084;5.412;2023-03-23T09:11:46;17.80;70.60
66190;DHT22;52992;52.084;5.412;2023-03-23T09:14:12;18.10;69.20
66190;DHT22;52992;52.084;5.412;2023-03-23T09:16:38;18.40;68.50
66190;DHT22;52992;52.084;5.412;2023-03-23T09:19:03;18.90;67.00
66190;DHT22;52992;52.084;5.412;2023-03-23T09:21:29;19.40;62.00
66190;DHT22;52992;52.084;5.412;2023-03-23T09:23:56;19.80;60.80
66190;DHT22;52992;52.084;5.412;2023-03-23T09:26:26;20.20;61.00
66190;DHT22;52992;52.084;5.412;2023-03-23T09:28:53;21.30;58.40
66190;DHT22;52992;52.084;5.412;2023-03-23T09:31:19;22.00;55.00
66190;DHT22;52992;52.084;5.412;2023-03-23T09:33:48;22.00;52.90
66190;DHT22;52992;52.084;5.412;2023-03-23T09:36:18;21.10;56.20
66190;DHT22;52992;52.084;5.412;2023-03-23T09:38:47;21.20;55.10
66190;DHT22;52992;52.084;5.412;2023-03-23T09:41:27;21.50;52.90
66190;DHT22;52992;52.084;5.412;2023-03-23T09:49:17;22.20;49.60
66190;DHT22;52992;52.084;5.412;2023-03-23T09:51:50;22.20;50.30
66190;DHT22;52992;52.084;5.412;2023-03-23T09:54:29;21.90;50.70
66190;DHT22;52992;52.084;5.412;2023-03-23T09:56:58;22.80;46.60
66190;DHT22;52992;52.084;5.412;2023-03-23T09:59:34;23.90;43.30
66190;DHT22;52992;52.084;5.412;2023-03-23T10:02:15;24.00;41.50
66190;DHT22;52992;52.084;5.412;2023-03-23T10:04:50;23.00;43.80
66190;DHT22;52992;52.084;5.412;2023-03-23T10:07:26;22.60;44.10
66190;DHT22;52992;52.084;5.412;2023-03-23T10:09:56;22.00;45.10
66190;DHT22;52992;52.084;5.412;2023-03-23T10:12:31;21.30;46.60
66190;DHT22;52992;52.084;5.412;2023-03-23T10:15:13;21.60;47.10
66190;DHT22;52992;52.084;5.412;2023-03-23T10:18:02;23.90;40.60
66190;DHT22;52992;52.084;5.412;2023-03-23T10:25:52;29.70;29.50
66190;DHT22;52992;52.084;5.412;2023-03-23T10:28:39;27.40;31.30
66190;DHT22;52992;52.084;5.412;2023-03-23T10:31:10;25.30;36.10
66190;DHT22;52992;52.084;5.412;2023-03-23T10:33:43;25.10;37.30
66190;DHT22;52992;52.084;5.412;2023-03-23T10:39:19;24.10;38.20
66190;DHT22;52992;52.084;5.412;2023-03-23T10:41:43;23.10;39.90
66190;DHT22;52992;52.084;5.412;2023-03-23T10:44:19;23.20;39.10
66190;DHT22;52992;52.084;5.412;2023-03-23T10:46:59;23.50;39.00
66190;DHT22;52992;52.084;5.412;2023-03-23T10:50:00;23.40;38.70
66190;DHT22;52992;52.084;5.412;2023-03-23T10:52:38;22.60;40.30
66190;DHT22;52992;52.084;5.412;2023-03-23T10:55:14;23.20;39.40
66190;DHT22;52992;52.084;5.412;2023-03-23T10:57:43;22.60;39.80
66190;DHT22;52992;52.084;5.412;2023-03-23T11:00:25;21.70;40.70
66190;DHT22;52992;52.084;5.412;2023-03-23T11:03:05;20.80;42.70
66190;DHT22;52992;52.084;5.412;2023-03-23T11:05:44;20.30;43.90
66190;DHT22;52992;52.084;5.412;2023-03-23T11:08:18;20.30;44.70
66190;DHT22;52992;52.084;5.412;2023-03-23T11:10:59;24.30;38.10
66190;DHT22;52992;52.084;5.412;2023-03-23T11:13:33;30.30;28.00
66190;DHT22;52992;52.084;5.412;2023-03-23T11:16:00;30.20;26.40
66190;DHT22;52992;52.084;5.412;2023-03-23T11:18:41;27.40;28.80
66190;DHT22;52992;52.084;5.412;2023-03-23T11:21:11;24.50;32.70
66190;DHT22;52992;52.084;5.412;2023-03-23T11:23:43;23.10;36.70
66190;DHT22;52992;52.084;5.412;2023-03-23T11:26:16;22.20;38.90
66190;DHT22;52992;52.084;5.412;2023-03-23T11:28:51;21.60;40.90
66190;DHT22;52992;52.084;5.412;2023-03-23T11:31:22;25.10;35.80
66190;DHT22;52992;52.084;5.412;2023-03-23T11:34:09;30.70;26.90
66190;DHT22;52992;52.084;5.412;2023-03-23T11:36:41;34.10;23.80
66190;DHT22;52992;52.084;5.412;2023-03-23T11:39:32;34.60;23.20
66190;DHT22;52992;52.084;5.412;2023-03-23T11:42:02;31.80;23.70
66190;DHT22;52992;52.084;5.412;2023-03-23T11:44:45;28.20;27.20
66190;DHT22;52992;52.084;5.412;2023-03-23T11:47:30;25.30;30.90
66190;DHT22;52992;52.084;5.412;2023-03-23T11:50:04;23.20;34.90
66190;DHT22;52992;52.084;5.412;2023-03-23T11:58:15;20.60;41.00
66190;DHT22;52992;52.084;5.412;2023-03-23T12:00:51;20.20;41.90
66190;DHT22;52992;52.084;5.412;2023-03-23T12:12:16;18.70;49.20
66190;DHT22;52992;52.084;5.412;2023-03-23T12:15:08;20.20;50.00
66190;DHT22;52992;52.084;5.412;2023-03-23T12:23:11;29.50;29.00
66190;DHT22;52992;52.084;5.412;2023-03-23T12:25:58;27.30;31.80
66190;DHT22;52992;52.084;5.412;2023-03-23T12:28:49;26.40;34.10
66190;DHT22;52992;52.084;5.412;2023-03-23T12:31:26;25.80;34.80
66190;DHT22;52992;52.084;5.412;2023-03-23T12:41:56;23.20;39.20
66190;DHT22;52992;52.084;5.412;2023-03-23T12:44:31;22.70;39.80
66190;DHT22;52992;52.084;5.412;2023-03-23T12:47:10;22.80;40.40
66190;DHT22;52992;52.084;5.412;2023-03-23T12:51:00;24.00;38.60
66190;DHT22;52992;52.084;5.412;2023-03-23T12:58:17;35.50;23.00
66190;DHT22;52992;52.084;5.412;2023-03-23T13:00:56;36.20;21.70
66190;DHT22;52992;52.084;5.412;2023-03-23T13:03:47;35.90;21.70
66190;DHT22;52992;52.084;5.412;2023-03-23T13:06:29;36.60;21.20
66190;DHT22;52992;52.084;5.412;2023-03-23T13:09:15;34.80;22.50
66190;DHT22;52992;52.084;5.412;2023-03-23T13:11:42;31.50;25.30
66190;DHT22;52992;52.084;5.412;2023-03-23T13:17:26;26.70;30.70
66190;DHT22;52992;52.084;5.412;2023-03-23T13:28:02;23.30;36.50
66190;DHT22;52992;52.084;5.412;2023-03-23T13:30:29;23.30;37.60
66190;DHT22;52992;52.084;5.412;2023-03-23T13:33:06;23.50;36.70
66190;DHT22;52992;52.084;5.412;2023-03-23T13:35:38;22.90;36.70
66190;DHT22;52992;52.084;5.412;2023-03-23T13:38:19;22.00;38.30
66190;DHT22;52992;52.084;5.412;2023-03-23T13:40:45;21.30;39.90
66190;DHT22;52992;52.084;5.412;2023-03-23T13:43:12;20.80;41.30
66190;DHT22;52992;52.084;5.412;2023-03-23T13:45:47;20.50;42.50
66190;DHT22;52992;52.084;5.412;2023-03-23T13:51:00;19.90;43.80
66190;DHT22;52992;52.084;5.412;2023-03-23T13:53:30;19.70;44.30
66190;DHT22;52992;52.084;5.412;2023-03-23T13:56:18;19.70;43.90
66190;DHT22;52992;52.084;5.412;2023-03-23T13:59:03;19.50;44.20
66190;DHT22;52992;52.084;5.412;2023-03-23T14:01:37;19.30;45.60
66190;DHT22;52992;52.084;5.412;2023-03-23T14:04:10;19.10;46.10
66190;DHT22;52992;52.084;5.412;2023-03-23T14:06:36;19.00;46.90
66190;DHT22;52992;52.084;5.412;2023-03-23T14:09:30;19.20;46.90
66190;DHT22;52992;52.084;5.412;2023-03-23T14:12:16;19.30;47.10
66190;DHT22;52992;52.084;5.412;2023-03-23T14:14:48;19.20;47.40
66190;DHT22;52992;52.084;5.412;2023-03-23T14:17:21;19.00;48.00
66190;DHT22;52992;52.084;5.412;2023-03-23T14:19:53;19.20;49.80
66190;DHT22;52992;52.084;5.412;2023-03-23T14:22:36;21.10;45.40
66190;DHT22;52992;52.084;5.412;2023-03-23T14:25:14;22.70;41.10
66190;DHT22;52992;52.084;5.412;2023-03-23T14:27:40;22.30;41.60
66190;DHT22;52992;52.084;5.412;2023-03-23T14:30:17;21.70;43.80
66190;DHT22;52992;52.084;5.412;2023-03-23T14:32:44;21.60;44.10
66190;DHT22;52992;52.084;5.412;2023-03-23T14:35:25;21.80;44.40
66190;DHT22;52992;52.084;5.412;2023-03-23T14:37:52;22.00;43.40
66190;DHT22;52992;52.084;5.412;2023-03-23T14:40:19;21.80;43.80
66190;DHT22;52992;52.084;5.412;2023-03-23T14:42:45;21.80;44.50
66190;DHT22;52992;52.084;5.412;2023-03-23T14:45:16;22.30;43.00
66190;DHT22;52992;52.084;5.412;2023-03-23T14:47:45;23.00;40.50
66190;DHT22;52992;52.084;5.412;2023-03-23T14:50:42;23.20;38.80
66190;DHT22;52992;52.084;5.412;2023-03-23T14:53:33;23.30;38.50
66190;DHT22;52992;52.084;5.412;2023-03-23T14:56:03;22.90;39.70
66190;DHT22;52992;52.084;5.412;2023-03-23T14:58:30;22.30;40.30
66190;DHT22;52992;52.084;5.412;2023-03-23T15:03:22;21.40;43.10
66190;DHT22;52992;52.084;5.412;2023-03-23T15:05:56;21.50;43.60
66190;DHT22;52992;52.084;5.412;2023-03-23T15:08:27;21.80;41.80
66190;DHT22;52992;52.084;5.412;2023-03-23T15:13:54;21.90;40.90
66190;DHT22;52992;52.084;5.412;2023-03-23T15:16:29;21.70;41.40
66190;DHT22;52992;52.084;5.412;2023-03-23T15:19:00;21.60;42.50
66190;DHT22;52992;52.084;5.412;2023-03-23T15:21:30;21.70;42.50
66190;DHT22;52992;52.084;5.412;2023-03-23T15:23:57;21.60;42.40
66190;DHT22;52992;52.084;5.412;2023-03-23T15:26:25;21.60;42.50
66190;DHT22;52992;52.084;5.412;2023-03-23T15:29:01;21.70;42.30
66190;DHT22;52992;52.084;5.412;2023-03-23T15:31:27;21.40;42.10
66190;DHT22;52992;52.084;5.412;2023-03-23T15:33:58;21.20;43.40
66190;DHT22;52992;52.084;5.412;2023-03-23T15:36:25;21.10;43.30
66190;DHT22;52992;52.084;5.412;2023-03-23T15:38:51;21.00;43.80
66190;DHT22;52992;52.084;5.412;2023-03-23T15:41:28;20.90;44.10
66190;DHT22;52992;52.084;5.412;2023-03-23T15:43:57;20.70;43.20
66190;DHT22;52992;52.084;5.412;2023-03-23T15:46:26;20.60;42.60
66190;DHT22;52992;52.084;5.412;2023-03-23T15:51:26;20.60;43.20
66190;DHT22;52992;52.084;5.412;2023-03-23T15:53:54;20.60;43.00
66190;DHT22;52992;52.084;5.412;2023-03-23T15:56:20;20.40;42.90
66190;DHT22;52992;52.084;5.412;2023-03-23T15:58:47;20.30;44.00
66190;DHT22;52992;52.084;5.412;2023-03-23T16:03:47;20.10;44.70
66190;DHT22;52992;52.084;5.412;2023-03-23T16:06:16;20.00;45.20
66190;DHT22;52992;52.084;5.412;2023-03-23T16:08:52;19.90;45.90
66190;DHT22;52992;52.084;5.412;2023-03-23T16:11:20;19.90;45.90
66190;DHT22;52992;52.084;5.412;2023-03-23T16:13:48;19.80;46.20
66190;DHT22;52992;52.084;5.412;2023-03-23T16:16:17;19.80;46.50
66190;DHT22;52992;52.084;5.412;2023-03-23T16:18:45;19.70;46.90
66190;DHT22;52992;52.084;5.412;2023-03-23T16:21:12;19.70;47.10
66190;DHT22;52992;52.084;5.412;2023-03-23T16:23:38;19.70;46.90
66190;DHT22;52992;52.084;5.412;2023-03-23T16:26:06;19.60;46.90
66190;DHT22;52992;52.084;5.412;2023-03-23T16:28:33;19.50;47.20
66190;DHT22;52992;52.084;5.412;2023-03-23T16:31:00;19.50;47.30
66190;DHT22;52992;52.084;5.412;2023-03-23T16:33:27;19.40;47.60
66190;DHT22;52992;52.084;5.412;2023-03-23T16:35:53;19.30;47.90
66190;DHT22;52992;52.084;5.412;2023-03-23T16:38:20;19.40;48.20
66190;DHT22;52992;52.084;5.412;2023-03-23T16:40:48;19.30;48.40
66190;DHT22;52992;52.084;5.412;2023-03-23T16:43:16;19.30;48.50
66190;DHT22;52992;52.084;5.412;2023-03-23T16:45:45;19.40;48.50
66190;DHT22;52992;52.084;5.412;2023-03-23T16:48:14;19.40;48.40
66190;DHT22;52992;52.084;5.412;2023-03-23T16:50:42;19.40;48.50
66190;DHT22;52992;52.084;5.412;2023-03-23T16:53:10;19.30;48.60
66190;DHT22;52992;52.084;5.412;2023-03-23T16:55:38;19.20;48.60
66190;DHT22;52992;52.084;5.412;2023-03-23T16:58:06;19.20;48.80
66190;DHT22;52992;52.084;5.412;2023-03-23T17:00:36;19.20;49.00
66190;DHT22;52992;52.084;5.412;2023-03-23T17:03:04;19.30;49.10
66190;DHT22;52992;52.084;5.412;2023-03-23T17:05:31;19.20;48.80
66190;DHT22;52992;52.084;5.412;2023-03-23T17:08:00;19.20;48.80
66190;DHT22;52992;52.084;5.412;2023-03-23T17:10:28;19.20;48.90
66190;DHT22;52992;52.084;5.412;2023-03-23T17:12:55;19.20;49.60
66190;DHT22;52992;52.084;5.412;2023-03-23T17:15:22;19.10;49.20
66190;DHT22;52992;52.084;5.412;2023-03-23T17:17:51;19.00;49.20
66190;DHT22;52992;52.084;5.412;2023-03-23T17:20:18;19.00;49.20
66190;DHT22;52992;52.084;5.412;2023-03-23T17:22:45;18.90;49.20
66190;DHT22;52992;52.084;5.412;2023-03-23T17:25:12;18.90;49.30
66190;DHT22;52992;52.084;5.412;2023-03-23T17:27:39;18.80;49.00
66190;DHT22;52992;52.084;5.412;2023-03-23T17:30:07;18.80;49.10
66190;DHT22;52992;52.084;5.412;2023-03-23T17:32:34;18.70;49.30